sensor_id;sensor_type;location;lat;lon;timestamp;pressure;altitude;pressure_sealevel;temperature;humidity
61963;BME280;47927;42.646;23.096;2022-07-21T00:01:52;92539.03;;;17.04;47.69
61963;BME280;47927;42.646;23.096;2022-07-21T00:04:18;92533.34;;;17.09;47.47
61963;BME280;47927;42.646;23.096;2022-07-21T00:06:45;92529.50;;;17.17;47.40
61963;BME280;47927;42.646;23.096;2022-07-21T00:09:12;92528.78;;;17.13;47.61
61963;BME280;47927;42.646;23.096;2022-07-21T00:11:38;92523.69;;;16.99;48.10
61963;BME280;47927;42.646;23.096;2022-07-21T00:14:06;92529.09;;;16.77;48.63
61963;BME280;47927;42.646;23.096;2022-07-21T00:16:33;92531.69;;;16.84;48.33
61963;BME280;47927;42.646;23.096;2022-07-21T00:18:59;92536.66;;;16.68;48.53
61963;BME280;47927;42.646;23.096;2022-07-21T00:21:26;92535.44;;;16.83;48.68
61963;BME280;47927;42.646;23.096;2022-07-21T00:23:52;92520.81;;;16.82;48.06
61963;BME280;47927;42.646;23.096;2022-07-21T00:26:17;92525.56;;;16.95;48.04
61963;BME280;47927;42.646;23.096;2022-07-21T00:28:43;92521.50;;;16.90;48.46
61963;BME280;47927;42.646;23.096;2022-07-21T00:31:08;92528.50;;;17.04;48.55
61963;BME280;47927;42.646;23.096;2022-07-21T00:33:34;92522.44;;;17.07;48.38
61963;BME280;47927;42.646;23.096;2022-07-21T00:35:59;92528.50;;;17.04;48.06
61963;BME280;47927;42.646;23.096;2022-07-21T00:38:25;92525.44;;;17.09;48.11
61963;BME280;47927;42.646;23.096;2022-07-21T00:40:50;92509.03;;;16.94;48.39
61963;BME280;47927;42.646;23.096;2022-07-21T00:43:16;92523.28;;;17.00;48.67
61963;BME280;47927;42.646;23.096;2022-07-21T00:45:42;92529.69;;;16.99;48.42
61963;BME280;47927;42.646;23.096;2022-07-21T00:48:07;92514.78;;;16.82;48.44
61963;BME280;47927;42.646;23.096;2022-07-21T00:50:33;92528.28;;;16.88;48.61
61963;BME280;47927;42.646;23.096;2022-07-21T00:52:59;92521.63;;;16.76;48.89
61963;BME280;47927;42.646;23.096;2022-07-21T00:55:24;92530.53;;;16.85;49.05
61963;BME280;47927;42.646;23.096;2022-07-21T00:57:51;92532.78;;;16.91;48.81
61963;BME280;47927;42.646;23.096;2022-07-21T01:00:23;92529.44;;;16.83;48.93
61963;BME280;47927;42.646;23.096;2022-07-21T01:02:50;92519.50;;;16.53;49.47
61963;BME280;47927;42.646;23.096;2022-07-21T01:05:16;92523.13;;;16.70;49.33
61963;BME280;47927;42.646;23.096;2022-07-21T01:07:47;92529.06;;;16.84;49.19
61963;BME280;47927;42.646;23.096;2022-07-21T01:10:14;92523.84;;;16.74;49.55
61963;BME280;47927;42.646;23.096;2022-07-21T01:12:40;92514.13;;;16.67;49.21
61963;BME280;47927;42.646;23.096;2022-07-21T01:15:08;92528.00;;;16.78;49.06
61963;BME280;47927;42.646;23.096;2022-07-21T01:17:34;92525.31;;;16.82;49.23
61963;BME280;47927;42.646;23.096;2022-07-21T01:20:04;92513.72;;;16.76;50.00
61963;BME280;47927;42.646;23.096;2022-07-21T01:22:33;92516.34;;;16.76;50.10
61963;BME280;47927;42.646;23.096;2022-07-21T01:24:58;92522.88;;;16.57;50.69
61963;BME280;47927;42.646;23.096;2022-07-21T01:27:28;92515.09;;;16.43;50.65
61963;BME280;47927;42.646;23.096;2022-07-21T01:29:54;92503.03;;;15.86;52.62
61963;BME280;47927;42.646;23.096;2022-07-21T01:32:20;92509.91;;;15.55;53.78
61963;BME280;47927;42.646;23.096;2022-07-21T01:34:46;92508.19;;;16.00;52.59
61963;BME280;47927;42.646;23.096;2022-07-21T01:37:11;92508.03;;;16.29;51.87
61963;BME280;47927;42.646;23.096;2022-07-21T01:39:38;92489.22;;;16.34;51.52
61963;BME280;47927;42.646;23.096;2022-07-21T01:42:21;92504.59;;;16.35;51.87
61963;BME280;47927;42.646;23.096;2022-07-21T01:44:48;92506.13;;;16.36;51.89
61963;BME280;47927;42.646;23.096;2022-07-21T01:47:14;92502.41;;;16.30;51.58
61963;BME280;47927;42.646;23.096;2022-07-21T01:49:43;92500.00;;;15.91;52.78
61963;BME280;47927;42.646;23.096;2022-07-21T01:52:09;92501.34;;;16.17;52.28
61963;BME280;47927;42.646;23.096;2022-07-21T01:54:34;92500.41;;;16.45;51.89
61963;BME280;47927;42.646;23.096;2022-07-21T01:57:00;92499.78;;;16.30;52.13
61963;BME280;47927;42.646;23.096;2022-07-21T01:59:25;92504.41;;;16.08;53.02
61963;BME280;47927;42.646;23.096;2022-07-21T02:01:51;92512.16;;;16.33;52.40
61963;BME280;47927;42.646;23.096;2022-07-21T02:04:16;92499.69;;;16.41;51.99
61963;BME280;47927;42.646;23.096;2022-07-21T02:06:42;92480.91;;;16.43;51.59
61963;BME280;47927;42.646;23.096;2022-07-21T02:09:08;92499.22;;;16.53;51.64
61963;BME280;47927;42.646;23.096;2022-07-21T02:11:34;92493.50;;;16.62;51.38
61963;BME280;47927;42.646;23.096;2022-07-21T02:13:59;92499.66;;;16.45;51.75
61963;BME280;47927;42.646;23.096;2022-07-21T02:16:27;92507.16;;;16.46;51.79
61963;BME280;47927;42.646;23.096;2022-07-21T02:19:11;92501.19;;;16.38;52.04
61963;BME280;47927;42.646;23.096;2022-07-21T02:21:37;92495.13;;;16.49;51.67
61963;BME280;47927;42.646;23.096;2022-07-21T02:24:03;92486.78;;;16.57;51.24
61963;BME280;47927;42.646;23.096;2022-07-21T02:26:28;92486.75;;;16.61;51.17
61963;BME280;47927;42.646;23.096;2022-07-21T02:28:54;92485.28;;;16.56;51.59
61963;BME280;47927;42.646;23.096;2022-07-21T02:31:19;92489.44;;;16.57;51.47
61963;BME280;47927;42.646;23.096;2022-07-21T02:33:45;92489.72;;;16.67;51.12
61963;BME280;47927;42.646;23.096;2022-07-21T02:36:11;92488.19;;;16.69;51.29
61963;BME280;47927;42.646;23.096;2022-07-21T02:38:36;92494.25;;;16.62;51.63
61963;BME280;47927;42.646;23.096;2022-07-21T02:41:02;92495.84;;;16.53;51.83
61963;BME280;47927;42.646;23.096;2022-07-21T02:43:28;92493.63;;;16.48;52.00
61963;BME280;47927;42.646;23.096;2022-07-21T02:45:53;92498.47;;;16.53;52.04
61963;BME280;47927;42.646;23.096;2022-07-21T02:48:19;92483.16;;;16.40;52.00
61963;BME280;47927;42.646;23.096;2022-07-21T02:50:45;92480.41;;;16.03;52.83
61963;BME280;47927;42.646;23.096;2022-07-21T02:53:13;92493.84;;;16.19;52.91
61963;BME280;47927;42.646;23.096;2022-07-21T02:55:39;92493.88;;;16.12;53.44
61963;BME280;47927;42.646;23.096;2022-07-21T02:58:15;92495.28;;;16.27;52.75
61963;BME280;47927;42.646;23.096;2022-07-21T03:01:02;92497.16;;;16.30;52.70
61963;BME280;47927;42.646;23.096;2022-07-21T03:03:31;92499.72;;;16.37;52.42
61963;BME280;47927;42.646;23.096;2022-07-21T03:05:58;92497.78;;;16.41;52.27
61963;BME280;47927;42.646;23.096;2022-07-21T03:08:24;92500.81;;;16.40;52.66
61963;BME280;47927;42.646;23.096;2022-07-21T03:10:51;92506.09;;;16.40;52.55
61963;BME280;47927;42.646;23.096;2022-07-21T03:13:17;92503.06;;;16.45;52.52
61963;BME280;47927;42.646;23.096;2022-07-21T03:15:42;92506.41;;;16.46;52.38
61963;BME280;47927;42.646;23.096;2022-07-21T03:18:08;92488.13;;;16.31;52.41
61963;BME280;47927;42.646;23.096;2022-07-21T03:20:36;92501.91;;;16.46;52.68
61963;BME280;47927;42.646;23.096;2022-07-21T03:23:02;92503.06;;;16.45;52.40
61963;BME280;47927;42.646;23.096;2022-07-21T03:25:28;92510.50;;;16.54;52.58
61963;BME280;47927;42.646;23.096;2022-07-21T03:27:54;92501.09;;;16.53;52.45
61963;BME280;47927;42.646;23.096;2022-07-21T03:30:20;92498.09;;;16.51;52.29
61963;BME280;47927;42.646;23.096;2022-07-21T03:32:47;92503.34;;;16.54;52.66
61963;BME280;47927;42.646;23.096;2022-07-21T03:35:13;92505.97;;;16.54;52.14
61963;BME280;47927;42.646;23.096;2022-07-21T03:37:44;92501.03;;;16.63;52.32
61963;BME280;47927;42.646;23.096;2022-07-21T03:40:12;92507.03;;;16.64;52.26
61963;BME280;47927;42.646;23.096;2022-07-21T03:42:38;92491.34;;;16.50;52.46
61963;BME280;47927;42.646;23.096;2022-07-21T03:45:05;92510.03;;;16.66;52.59
61963;BME280;47927;42.646;23.096;2022-07-21T03:47:31;92503.44;;;16.89;52.15
61963;BME280;47927;42.646;23.096;2022-07-21T03:49:56;92504.47;;;17.02;51.67
61963;BME280;47927;42.646;23.096;2022-07-21T03:52:22;92506.19;;;17.19;51.69
61963;BME280;47927;42.646;23.096;2022-07-21T03:54:47;92510.16;;;17.35;51.43
61963;BME280;47927;42.646;23.096;2022-07-21T03:57:13;92511.88;;;17.48;51.13
61963;BME280;47927;42.646;23.096;2022-07-21T03:59:38;92506.50;;;17.59;50.70
61963;BME280;47927;42.646;23.096;2022-07-21T04:02:04;92509.88;;;17.94;50.34
61963;BME280;47927;42.646;23.096;2022-07-21T04:04:29;92517.06;;;18.17;49.56
61963;BME280;47927;42.646;23.096;2022-07-21T04:06:55;92517.50;;;18.66;48.77
61963;BME280;47927;42.646;23.096;2022-07-21T04:09:20;92513.44;;;19.08;47.90
61963;BME280;47927;42.646;23.096;2022-07-21T04:11:46;92518.88;;;19.41;47.31
61963;BME280;47927;42.646;23.096;2022-07-21T04:14:12;92520.38;;;20.02;46.56
61963;BME280;47927;42.646;23.096;2022-07-21T04:16:37;92527.34;;;20.65;44.06
61963;BME280;47927;42.646;23.096;2022-07-21T04:19:03;92527.44;;;20.94;43.60
61963;BME280;47927;42.646;23.096;2022-07-21T04:21:29;92527.59;;;21.49;42.80
61963;BME280;47927;42.646;23.096;2022-07-21T04:23:55;92526.19;;;22.28;41.01
61963;BME280;47927;42.646;23.096;2022-07-21T04:26:20;92525.53;;;23.35;38.67
61963;BME280;47927;42.646;23.096;2022-07-21T04:28:46;92529.09;;;24.61;36.58
61963;BME280;47927;42.646;23.096;2022-07-21T04:31:12;92521.69;;;26.40;32.90
61963;BME280;47927;42.646;23.096;2022-07-21T04:33:37;92528.75;;;27.96;30.62
61963;BME280;47927;42.646;23.096;2022-07-21T04:36:03;92525.50;;;29.42;27.82
61963;BME280;47927;42.646;23.096;2022-07-21T04:38:29;92528.53;;;30.23;26.75
61963;BME280;47927;42.646;23.096;2022-07-21T04:40:54;92531.41;;;30.19;26.80
61963;BME280;47927;42.646;23.096;2022-07-21T04:43:20;92530.56;;;30.97;25.83
61963;BME280;47927;42.646;23.096;2022-07-21T04:45:45;92534.28;;;31.59;23.79
61963;BME280;47927;42.646;23.096;2022-07-21T04:48:11;92529.72;;;31.93;24.55
61963;BME280;47927;42.646;23.096;2022-07-21T04:50:36;92525.09;;;32.33;22.93
61963;BME280;47927;42.646;23.096;2022-07-21T04:53:02;92523.63;;;32.77;22.83
61963;BME280;47927;42.646;23.096;2022-07-21T04:55:28;92534.66;;;32.62;22.80
61963;BME280;47927;42.646;23.096;2022-07-21T04:57:53;92522.00;;;31.58;23.73
61963;BME280;47927;42.646;23.096;2022-07-21T05:00:21;92539.78;;;30.53;26.53
61963;BME280;47927;42.646;23.096;2022-07-21T05:02:48;92536.41;;;29.80;27.60
61963;BME280;47927;42.646;23.096;2022-07-21T05:05:14;92535.91;;;29.35;27.87
61963;BME280;47927;42.646;23.096;2022-07-21T05:07:40;92534.19;;;28.96;26.88
61963;BME280;47927;42.646;23.096;2022-07-21T05:10:11;92540.44;;;29.08;28.45
61963;BME280;47927;42.646;23.096;2022-07-21T05:12:37;92534.16;;;29.52;26.46
61963;BME280;47927;42.646;23.096;2022-07-21T05:15:21;92532.22;;;29.99;27.03
61963;BME280;47927;42.646;23.096;2022-07-21T05:17:47;92540.81;;;30.61;26.87
61963;BME280;47927;42.646;23.096;2022-07-21T05:20:12;92528.63;;;31.57;23.89
61963;BME280;47927;42.646;23.096;2022-07-21T05:22:39;92538.53;;;31.99;24.76
61963;BME280;47927;42.646;23.096;2022-07-21T05:25:05;92542.97;;;32.98;22.50
61963;BME280;47927;42.646;23.096;2022-07-21T05:27:31;92543.94;;;34.59;21.11
61963;BME280;47927;42.646;23.096;2022-07-21T05:29:57;92542.47;;;36.50;17.88
61963;BME280;47927;42.646;23.096;2022-07-21T05:32:23;92543.50;;;37.99;16.57
61963;BME280;47927;42.646;23.096;2022-07-21T05:34:48;92552.13;;;39.73;14.38
61963;BME280;47927;42.646;23.096;2022-07-21T05:37:14;92543.47;;;41.11;14.31
61963;BME280;47927;42.646;23.096;2022-07-21T05:39:40;92544.66;;;42.11;12.73
61963;BME280;47927;42.646;23.096;2022-07-21T05:42:06;92558.50;;;42.79;12.06
61963;BME280;47927;42.646;23.096;2022-07-21T05:44:31;92553.88;;;43.84;11.60
61963;BME280;47927;42.646;23.096;2022-07-21T05:46:57;92554.34;;;43.73;10.91
61963;BME280;47927;42.646;23.096;2022-07-21T05:49:23;92559.41;;;44.65;10.47
61963;BME280;47927;42.646;23.096;2022-07-21T05:51:49;92560.84;;;45.03;9.51
61963;BME280;47927;42.646;23.096;2022-07-21T05:54:14;92569.00;;;45.20;10.40
61963;BME280;47927;42.646;23.096;2022-07-21T05:56:40;92570.38;;;45.58;9.13
61963;BME280;47927;42.646;23.096;2022-07-21T05:59:06;92566.75;;;46.14;9.45
61963;BME280;47927;42.646;23.096;2022-07-21T06:01:31;92563.84;;;46.12;9.00
61963;BME280;47927;42.646;23.096;2022-07-21T06:03:57;92556.44;;;46.75;10.40
61963;BME280;47927;42.646;23.096;2022-07-21T06:06:23;92566.25;;;47.62;8.76
61963;BME280;47927;42.646;23.096;2022-07-21T06:08:49;92564.72;;;48.25;8.23
61963;BME280;47927;42.646;23.096;2022-07-21T06:11:16;92559.13;;;48.47;7.89
61963;BME280;47927;42.646;23.096;2022-07-21T06:13:42;92553.38;;;47.33;8.25
61963;BME280;47927;42.646;23.096;2022-07-21T06:16:09;92563.69;;;48.09;7.73
61963;BME280;47927;42.646;23.096;2022-07-21T06:18:35;92559.63;;;48.78;7.85
61963;BME280;47927;42.646;23.096;2022-07-21T06:21:02;92553.38;;;48.66;7.98
61963;BME280;47927;42.646;23.096;2022-07-21T06:23:28;92559.22;;;48.49;8.13
61963;BME280;47927;42.646;23.096;2022-07-21T06:25:53;92548.94;;;49.08;7.49
61963;BME280;47927;42.646;23.096;2022-07-21T06:28:19;92555.06;;;49.30;8.88
61963;BME280;47927;42.646;23.096;2022-07-21T06:30:45;92545.38;;;48.25;8.21
61963;BME280;47927;42.646;23.096;2022-07-21T06:33:11;92548.66;;;48.45;7.69
61963;BME280;47927;42.646;23.096;2022-07-21T06:35:37;92545.31;;;49.05;7.76
61963;BME280;47927;42.646;23.096;2022-07-21T06:38:03;92546.53;;;49.02;8.00
61963;BME280;47927;42.646;23.096;2022-07-21T06:40:29;92546.63;;;49.77;8.32
61963;BME280;47927;42.646;23.096;2022-07-21T06:42:55;92551.47;;;49.65;7.77
61963;BME280;47927;42.646;23.096;2022-07-21T06:45:21;92551.78;;;49.45;8.10
61963;BME280;47927;42.646;23.096;2022-07-21T06:47:47;92554.81;;;49.14;8.82
61963;BME280;47927;42.646;23.096;2022-07-21T06:50:13;92551.25;;;49.61;7.88
61963;BME280;47927;42.646;23.096;2022-07-21T06:52:39;92557.91;;;49.20;8.18
61963;BME280;47927;42.646;23.096;2022-07-21T06:55:06;92557.84;;;49.67;8.67
61963;BME280;47927;42.646;23.096;2022-07-21T06:57:35;92553.25;;;49.11;8.26
61963;BME280;47927;42.646;23.096;2022-07-21T07:00:04;92559.09;;;49.41;7.65
61963;BME280;47927;42.646;23.096;2022-07-21T07:02:31;92552.22;;;49.65;8.01
61963;BME280;47927;42.646;23.096;2022-07-21T07:04:56;92550.44;;;49.46;8.19
61963;BME280;47927;42.646;23.096;2022-07-21T07:07:22;92554.16;;;49.51;7.81
61963;BME280;47927;42.646;23.096;2022-07-21T07:09:48;92547.97;;;48.68;7.89
61963;BME280;47927;42.646;23.096;2022-07-21T07:12:14;92552.63;;;49.36;8.67
61963;BME280;47927;42.646;23.096;2022-07-21T07:14:39;92546.91;;;50.46;7.50
61963;BME280;47927;42.646;23.096;2022-07-21T07:17:05;92552.97;;;49.80;8.19
61963;BME280;47927;42.646;23.096;2022-07-21T07:19:31;92548.56;;;49.14;7.94
61963;BME280;47927;42.646;23.096;2022-07-21T07:21:58;92548.44;;;49.72;8.16
61963;BME280;47927;42.646;23.096;2022-07-21T07:24:24;92546.13;;;49.20;9.07
61963;BME280;47927;42.646;23.096;2022-07-21T07:26:49;92548.41;;;49.84;8.54
61963;BME280;47927;42.646;23.096;2022-07-21T07:29:15;92546.75;;;50.30;8.10
61963;BME280;47927;42.646;23.096;2022-07-21T07:31:40;92547.56;;;50.72;7.65
61963;BME280;47927;42.646;23.096;2022-07-21T07:34:06;92546.78;;;50.18;8.37
61963;BME280;47927;42.646;23.096;2022-07-21T07:36:32;92546.06;;;50.44;8.12
61963;BME280;47927;42.646;23.096;2022-07-21T07:38:59;92538.00;;;50.22;7.67
61963;BME280;47927;42.646;23.096;2022-07-21T07:41:26;92536.38;;;49.80;8.31
61963;BME280;47927;42.646;23.096;2022-07-21T07:43:53;92534.66;;;49.00;8.79
61963;BME280;47927;42.646;23.096;2022-07-21T07:46:19;92537.41;;;49.61;8.01
61963;BME280;47927;42.646;23.096;2022-07-21T07:48:45;92531.88;;;48.53;8.59
61963;BME280;47927;42.646;23.096;2022-07-21T07:51:11;92531.47;;;48.35;8.92
61963;BME280;47927;42.646;23.096;2022-07-21T07:53:38;92524.06;;;48.61;8.17
61963;BME280;47927;42.646;23.096;2022-07-21T07:56:04;92520.91;;;48.78;8.22
61963;BME280;47927;42.646;23.096;2022-07-21T07:58:30;92519.84;;;48.83;8.05
61963;BME280;47927;42.646;23.096;2022-07-21T08:00:55;92514.16;;;48.23;8.65
61963;BME280;47927;42.646;23.096;2022-07-21T08:03:22;92510.94;;;47.81;8.95
61963;BME280;47927;42.646;23.096;2022-07-21T08:05:48;92514.41;;;48.38;9.19
61963;BME280;47927;42.646;23.096;2022-07-21T08:08:14;92507.88;;;48.10;8.48
61963;BME280;47927;42.646;23.096;2022-07-21T08:10:43;92514.75;;;48.33;8.80
61963;BME280;47927;42.646;23.096;2022-07-21T08:13:18;92504.78;;;48.39;8.77
61963;BME280;47927;42.646;23.096;2022-07-21T08:15:45;92510.97;;;48.50;8.08
61963;BME280;47927;42.646;23.096;2022-07-21T08:18:11;92511.50;;;49.19;8.53
61963;BME280;47927;42.646;23.096;2022-07-21T08:20:37;92511.91;;;49.62;7.36
61963;BME280;47927;42.646;23.096;2022-07-21T08:23:21;92506.44;;;49.39;7.92
61963;BME280;47927;42.646;23.096;2022-07-21T08:25:47;92506.22;;;49.23;7.34
61963;BME280;47927;42.646;23.096;2022-07-21T08:28:12;92501.22;;;48.96;8.34
61963;BME280;47927;42.646;23.096;2022-07-21T08:30:38;92502.78;;;48.64;7.70
61963;BME280;47927;42.646;23.096;2022-07-21T08:33:05;92500.97;;;48.80;7.77
61963;BME280;47927;42.646;23.096;2022-07-21T08:35:31;92494.25;;;48.95;7.81
61963;BME280;47927;42.646;23.096;2022-07-21T08:38:03;92478.25;;;48.70;8.64
61963;BME280;47927;42.646;23.096;2022-07-21T08:40:31;92485.00;;;47.86;8.98
61963;BME280;47927;42.646;23.096;2022-07-21T08:42:58;92486.38;;;47.21;9.30
61963;BME280;47927;42.646;23.096;2022-07-21T08:45:25;92481.75;;;47.45;9.63
61963;BME280;47927;42.646;23.096;2022-07-21T08:47:54;92479.81;;;46.01;10.67
61963;BME280;47927;42.646;23.096;2022-07-21T08:50:22;92481.00;;;45.79;11.18
61963;BME280;47927;42.646;23.096;2022-07-21T08:52:48;92465.44;;;46.12;11.02
61963;BME280;47927;42.646;23.096;2022-07-21T08:55:14;92483.91;;;46.41;10.67
61963;BME280;47927;42.646;23.096;2022-07-21T08:57:40;92483.59;;;46.47;9.37
61963;BME280;47927;42.646;23.096;2022-07-21T09:00:07;92471.94;;;46.17;8.92
61963;BME280;47927;42.646;23.096;2022-07-21T09:02:34;92475.25;;;46.35;9.47
61963;BME280;47927;42.646;23.096;2022-07-21T09:05:00;92475.50;;;46.70;9.74
61963;BME280;47927;42.646;23.096;2022-07-21T09:07:26;92466.81;;;46.64;9.40
61963;BME280;47927;42.646;23.096;2022-07-21T09:09:59;92470.63;;;46.18;8.82
61963;BME280;47927;42.646;23.096;2022-07-21T09:12:26;92462.31;;;45.97;9.21
61963;BME280;47927;42.646;23.096;2022-07-21T09:14:52;92465.28;;;46.20;9.29
61963;BME280;47927;42.646;23.096;2022-07-21T09:17:19;92452.88;;;45.90;10.02
61963;BME280;47927;42.646;23.096;2022-07-21T09:19:46;92464.09;;;45.73;9.45
61963;BME280;47927;42.646;23.096;2022-07-21T09:22:17;92453.97;;;45.56;9.27
61963;BME280;47927;42.646;23.096;2022-07-21T09:24:51;92461.47;;;45.65;9.66
61963;BME280;47927;42.646;23.096;2022-07-21T09:27:21;92455.81;;;45.05;10.46
61963;BME280;47927;42.646;23.096;2022-07-21T09:32:18;92465.06;;;44.99;9.21
61963;BME280;47927;42.646;23.096;2022-07-21T09:34:45;92454.50;;;44.96;9.72
61963;BME280;47927;42.646;23.096;2022-07-21T09:37:11;92452.72;;;44.71;10.09
61963;BME280;47927;42.646;23.096;2022-07-21T09:39:44;92454.06;;;44.99;9.75
61963;BME280;47927;42.646;23.096;2022-07-21T09:44:41;92456.72;;;44.61;11.21
61963;BME280;47927;42.646;23.096;2022-07-21T09:47:15;92455.94;;;44.97;9.56
61963;BME280;47927;42.646;23.096;2022-07-21T09:49:42;92449.50;;;44.65;10.45
61963;BME280;47927;42.646;23.096;2022-07-21T09:52:38;92454.22;;;43.64;10.78
61963;BME280;47927;42.646;23.096;2022-07-21T09:55:09;92447.50;;;43.13;11.06
61963;BME280;47927;42.646;23.096;2022-07-21T09:57:35;92455.56;;;43.11;12.17
61963;BME280;47927;42.646;23.096;2022-07-21T10:00:04;92451.84;;;42.81;10.98
61963;BME280;47927;42.646;23.096;2022-07-21T10:02:31;92444.06;;;42.70;11.78
61963;BME280;47927;42.646;23.096;2022-07-21T10:07:26;92448.22;;;42.71;11.78
61963;BME280;47927;42.646;23.096;2022-07-21T10:09:52;92450.22;;;42.78;11.12
61963;BME280;47927;42.646;23.096;2022-07-21T10:12:18;92451.69;;;42.71;11.49
61963;BME280;47927;42.646;23.096;2022-07-21T10:14:45;92449.34;;;42.68;10.60
61963;BME280;47927;42.646;23.096;2022-07-21T10:17:13;92442.84;;;42.38;10.87
61963;BME280;47927;42.646;23.096;2022-07-21T10:24:58;92444.34;;;41.74;12.06
61963;BME280;47927;42.646;23.096;2022-07-21T10:27:24;92430.72;;;41.58;11.22
61963;BME280;47927;42.646;23.096;2022-07-21T10:30:00;92426.38;;;41.55;11.48
61963;BME280;47927;42.646;23.096;2022-07-21T10:32:29;92423.00;;;41.72;10.76
61963;BME280;47927;42.646;23.096;2022-07-21T10:34:57;92424.31;;;41.23;10.67
61963;BME280;47927;42.646;23.096;2022-07-21T10:40:05;92419.69;;;41.41;10.64
61963;BME280;47927;42.646;23.096;2022-07-21T10:42:30;92410.13;;;41.02;12.62
61963;BME280;47927;42.646;23.096;2022-07-21T10:44:56;92402.22;;;40.73;12.15
61963;BME280;47927;42.646;23.096;2022-07-21T10:47:22;92409.16;;;40.43;12.70
61963;BME280;47927;42.646;23.096;2022-07-21T10:50:01;92404.75;;;40.55;12.27
61963;BME280;47927;42.646;23.096;2022-07-21T10:57:40;92403.47;;;40.10;12.81
61963;BME280;47927;42.646;23.096;2022-07-21T11:02:58;92395.31;;;40.10;12.36
61963;BME280;47927;42.646;23.096;2022-07-21T11:05:26;92393.38;;;39.52;12.66
61963;BME280;47927;42.646;23.096;2022-07-21T11:08:11;92391.53;;;39.39;13.76
61963;BME280;47927;42.646;23.096;2022-07-21T11:10:43;92394.09;;;39.08;12.97
61963;BME280;47927;42.646;23.096;2022-07-21T11:13:10;92381.19;;;39.09;12.84
61963;BME280;47927;42.646;23.096;2022-07-21T11:18:18;92394.03;;;38.93;13.43
61963;BME280;47927;42.646;23.096;2022-07-21T11:20:57;92391.91;;;38.70;12.92
61963;BME280;47927;42.646;23.096;2022-07-21T11:23:34;92392.56;;;38.56;13.45
61963;BME280;47927;42.646;23.096;2022-07-21T11:26:00;92384.13;;;38.25;14.02
61963;BME280;47927;42.646;23.096;2022-07-21T11:28:26;92385.13;;;38.35;13.86
61963;BME280;47927;42.646;23.096;2022-07-21T11:31:08;92380.03;;;38.60;13.97
61963;BME280;47927;42.646;23.096;2022-07-21T11:33:39;92389.63;;;38.53;14.04
61963;BME280;47927;42.646;23.096;2022-07-21T11:36:05;92380.09;;;38.18;13.71
61963;BME280;47927;42.646;23.096;2022-07-21T11:38:31;92377.13;;;38.08;13.68
61963;BME280;47927;42.646;23.096;2022-07-21T11:41:16;92374.34;;;38.01;15.06
61963;BME280;47927;42.646;23.096;2022-07-21T11:44:01;92365.66;;;38.02;14.74
61963;BME280;47927;42.646;23.096;2022-07-21T11:46:27;92374.13;;;37.78;14.32
61963;BME280;47927;42.646;23.096;2022-07-21T11:49:05;92369.16;;;37.69;16.77
61963;BME280;47927;42.646;23.096;2022-07-21T11:51:31;92367.69;;;37.47;15.09
61963;BME280;47927;42.646;23.096;2022-07-21T11:53:57;92374.41;;;37.67;15.18
61963;BME280;47927;42.646;23.096;2022-07-21T11:56:22;92368.06;;;37.51;15.30
61963;BME280;47927;42.646;23.096;2022-07-21T11:58:48;92369.88;;;37.48;15.45
61963;BME280;47927;42.646;23.096;2022-07-21T12:01:14;92364.31;;;36.40;16.27
61963;BME280;47927;42.646;23.096;2022-07-21T12:03:50;92369.78;;;36.66;15.40
61963;BME280;47927;42.646;23.096;2022-07-21T12:06:16;92365.78;;;36.81;15.13
61963;BME280;47927;42.646;23.096;2022-07-21T12:08:43;92363.41;;;35.41;17.34
61963;BME280;47927;42.646;23.096;2022-07-21T12:11:09;92364.50;;;34.94;17.68
61963;BME280;47927;42.646;23.096;2022-07-21T12:13:58;92362.97;;;35.88;17.13
61963;BME280;47927;42.646;23.096;2022-07-21T12:16:24;92360.09;;;35.48;17.69
61963;BME280;47927;42.646;23.096;2022-07-21T12:19:08;92370.28;;;35.93;16.84
61963;BME280;47927;42.646;23.096;2022-07-21T12:22:03;92353.03;;;36.09;17.14
61963;BME280;47927;42.646;23.096;2022-07-21T12:24:48;92358.25;;;36.34;17.52
61963;BME280;47927;42.646;23.096;2022-07-21T12:27:16;92354.91;;;36.27;17.05
61963;BME280;47927;42.646;23.096;2022-07-21T12:29:42;92350.53;;;36.24;17.93
61963;BME280;47927;42.646;23.096;2022-07-21T12:32:07;92355.34;;;36.45;16.54
61963;BME280;47927;42.646;23.096;2022-07-21T12:34:47;92357.63;;;36.41;17.53
61963;BME280;47927;42.646;23.096;2022-07-21T12:37:13;92343.66;;;36.23;16.60
61963;BME280;47927;42.646;23.096;2022-07-21T12:39:38;92342.00;;;36.34;17.26
61963;BME280;47927;42.646;23.096;2022-07-21T12:42:33;92350.25;;;36.41;16.63
61963;BME280;47927;42.646;23.096;2022-07-21T12:45:12;92340.28;;;35.58;18.44
61963;BME280;47927;42.646;23.096;2022-07-21T12:47:39;92335.50;;;35.46;17.92
61963;BME280;47927;42.646;23.096;2022-07-21T12:50:07;92329.78;;;35.49;18.37
61963;BME280;47927;42.646;23.096;2022-07-21T12:52:33;92346.22;;;35.38;18.93
61963;BME280;47927;42.646;23.096;2022-07-21T12:54:59;92344.34;;;35.14;17.58
61963;BME280;47927;42.646;23.096;2022-07-21T12:57:29;92339.72;;;34.65;18.72
61963;BME280;47927;42.646;23.096;2022-07-21T12:59:57;92335.13;;;34.60;18.37
61963;BME280;47927;42.646;23.096;2022-07-21T13:02:23;92348.47;;;34.53;18.09
61963;BME280;47927;42.646;23.096;2022-07-21T13:04:50;92334.06;;;34.69;18.13
61963;BME280;47927;42.646;23.096;2022-07-21T13:07:16;92342.91;;;34.45;18.68
61963;BME280;47927;42.646;23.096;2022-07-21T13:09:41;92325.16;;;34.25;19.06
61963;BME280;47927;42.646;23.096;2022-07-21T13:12:07;92339.00;;;34.40;19.16
61963;BME280;47927;42.646;23.096;2022-07-21T13:14:33;92325.78;;;34.61;19.25
61963;BME280;47927;42.646;23.096;2022-07-21T13:16:59;92323.66;;;34.54;19.08
61963;BME280;47927;42.646;23.096;2022-07-21T13:19:25;92316.78;;;34.72;19.20
61963;BME280;47927;42.646;23.096;2022-07-21T13:21:51;92305.28;;;34.22;18.57